Terminal Aerodrome Forecast
Issued by NWS

Current Version | Previous Version | Graphics & Text | Print | Product List | Glossary On
Versions: 1 2 3 4 5 6 7 8 9 10 11 12 13 14 15 16 17 18
000
FTUS41 KPBZ 022332
TAFMGW
TAF
KMGW 022332Z 0300/0324 12010KT P6SM BKN200
     FM030400 15010KT P6SM OVC100 WS020/17050KT
     FM030900 17012KT 6SM -SHRA BKN050 WS020/18055KT
     FM031200 18012G18KT 3SM SHRA BR OVC025
     FM031800 23013G22KT P6SM BKN040=

USA.gov is the U.S. government's official web portal to all federal, state and local government web resources and services.